createdAt,value
2023-06-11T00:01:49.552Z,100462.69
2023-06-11T00:04:26.763Z,100454.28
2023-06-11T00:06:58.500Z,100461.50
2023-06-11T00:09:29.583Z,100467.69
2023-06-11T00:12:02.996Z,100460.75
2023-06-11T00:14:33.744Z,100458.25
2023-06-11T00:17:04.449Z,100466.72
2023-06-11T00:19:35.108Z,100456.41
2023-06-11T00:22:06.640Z,100463.81
2023-06-11T00:24:37.489Z,100459.41
2023-06-11T00:27:11.240Z,100458.56
2023-06-11T00:29:41.938Z,100461.78
2023-06-11T00:32:13.457Z,100461.41
2023-06-11T00:34:44.370Z,100463.09
2023-06-11T00:37:15.605Z,100458.06
2023-06-11T00:39:46.306Z,100462.97
2023-06-11T00:42:20.876Z,100460.44
2023-06-11T00:44:53.286Z,100467.28
2023-06-11T00:47:24.171Z,100462.38
2023-06-11T00:49:55.157Z,100462.25
2023-06-11T00:52:26.943Z,100457.69
2023-06-11T00:54:59.886Z,100458.28
2023-06-11T00:57:33.362Z,100456.59
2023-06-11T01:00:04.865Z,100459.84
2023-06-11T01:02:41.953Z,100457.31
2023-06-11T01:05:14.100Z,100469.63
2023-06-11T01:07:52.016Z,100453.97
2023-06-11T01:10:23.016Z,100452.50
2023-06-11T01:12:56.489Z,100459.09
2023-06-11T01:15:27.148Z,100450.56
2023-06-11T01:18:04.672Z,100446.31
2023-06-11T01:20:41.004Z,100436.59
2023-06-11T01:23:26.316Z,100447.00
2023-06-11T01:26:20.776Z,100438.88
2023-06-11T01:28:59.819Z,100433.38
2023-06-11T01:31:32.817Z,100437.66
2023-06-11T01:34:03.685Z,100442.53
2023-06-11T01:36:36.059Z,100439.69
2023-06-11T01:39:06.962Z,100447.53
2023-06-11T01:41:37.754Z,100439.97
2023-06-11T01:44:12.053Z,100443.66
2023-06-11T01:46:42.765Z,100445.22
2023-06-11T01:49:13.457Z,100446.53
2023-06-11T01:51:44.603Z,100445.50
2023-06-11T01:54:15.373Z,100445.97
2023-06-11T01:56:46.116Z,100450.47
2023-06-11T01:59:19.548Z,100446.31
2023-06-11T02:01:55.049Z,100452.25
2023-06-11T02:04:26.250Z,100449.94
2023-06-11T02:06:56.948Z,100447.31
2023-06-11T02:09:27.651Z,100448.13
2023-06-11T02:11:58.284Z,100443.94
2023-06-11T02:14:31.614Z,100450.13
2023-06-11T02:17:02.250Z,100448.28
2023-06-11T02:19:32.975Z,100449.97
2023-06-11T02:22:03.589Z,100450.44
2023-06-11T02:24:34.374Z,100443.63
2023-06-11T02:27:05.062Z,100442.19
2023-06-11T02:29:38.915Z,100437.16
2023-06-11T02:32:12.946Z,100437.03
2023-06-11T02:34:43.680Z,100438.53
2023-06-11T02:37:14.357Z,100437.91
2023-06-11T02:39:45.123Z,100440.91
2023-06-11T02:42:15.832Z,100440.53
2023-06-11T02:44:49.187Z,100441.28
2023-06-11T02:47:20.039Z,100441.69
2023-06-11T02:49:50.786Z,100440.69
2023-06-11T02:52:21.442Z,100426.41
2023-06-11T02:54:52.289Z,100432.72
2023-06-11T02:57:23.051Z,100441.88
2023-06-11T02:59:56.348Z,100440.19
2023-06-11T03:02:27.048Z,100439.19
2023-06-11T03:04:57.893Z,100446.63
2023-06-11T03:07:28.620Z,100446.84
2023-06-11T03:09:59.363Z,100456.81
2023-06-11T03:12:30.102Z,100453.66
2023-06-11T03:15:03.654Z,100454.72
2023-06-11T03:17:34.321Z,100452.06
2023-06-11T03:20:05.064Z,100454.63
2023-06-11T03:22:35.777Z,100452.78
2023-06-11T03:25:06.747Z,100454.28
2023-06-11T03:27:37.418Z,100451.16
2023-06-11T03:30:12.935Z,100445.94
2023-06-11T03:32:45.221Z,100441.97
2023-06-11T03:35:16.295Z,100450.63
2023-06-11T03:37:46.955Z,100454.88
2023-06-11T03:40:18.838Z,100454.03
2023-06-11T03:42:49.552Z,100462.72
2023-06-11T03:45:23.106Z,100451.50
2023-06-11T03:47:57.543Z,100437.66
2023-06-11T03:50:28.301Z,100446.69
2023-06-11T03:52:58.956Z,100454.31
2023-06-11T03:55:31.167Z,100462.53
2023-06-11T03:58:02.107Z,100463.56
2023-06-11T04:00:35.471Z,100460.22
2023-06-11T04:03:06.413Z,100462.53
2023-06-11T04:05:40.374Z,100460.44
2023-06-11T04:08:11.190Z,100463.16
2023-06-11T04:10:41.984Z,100459.59
2023-06-11T04:13:12.817Z,100457.31
2023-06-11T04:15:46.133Z,100465.28
2023-06-11T04:18:17.074Z,100459.38
2023-06-11T04:20:47.971Z,100464.66
2023-06-11T04:23:18.656Z,100461.69
2023-06-11T04:25:50.518Z,100461.69
2023-06-11T04:28:21.203Z,100470.69
2023-06-11T04:30:59.466Z,100472.38
2023-06-11T04:33:33.997Z,100463.94
2023-06-11T04:36:06.915Z,100464.38
2023-06-11T04:38:38.680Z,100468.81
2023-06-11T04:41:12.862Z,100462.25
2023-06-11T04:43:45.985Z,100456.94
2023-06-11T04:46:19.520Z,100461.59
2023-06-11T04:48:51.823Z,100458.19
2023-06-11T04:51:25.306Z,100464.06
2023-06-11T04:53:59.537Z,100471.22
2023-06-11T04:56:30.260Z,100466.97
2023-06-11T04:59:01.071Z,100472.84
2023-06-11T05:01:34.506Z,100472.78
2023-06-11T05:04:05.193Z,100472.75
2023-06-11T05:06:36.041Z,100481.31
2023-06-11T05:09:07.530Z,100488.09
2023-06-11T05:11:38.225Z,100471.00
2023-06-11T05:14:08.889Z,100478.84
2023-06-11T05:16:42.911Z,100475.84
2023-06-11T05:19:13.739Z,100466.69
2023-06-11T05:21:44.500Z,100467.72
2023-06-11T05:24:21.185Z,100469.81
2023-06-11T05:26:52.243Z,100466.81
2023-06-11T05:29:22.888Z,100463.38
2023-06-11T05:31:57.900Z,100465.38
2023-06-11T05:34:29.014Z,100469.03
2023-06-11T05:36:59.688Z,100458.22
2023-06-11T05:39:30.364Z,100466.91
2023-06-11T05:42:01.092Z,100477.88
2023-06-11T05:44:31.747Z,100474.59
2023-06-11T05:47:05.280Z,100462.91
2023-06-11T05:49:35.987Z,100473.91
2023-06-11T05:52:06.963Z,100467.94
2023-06-11T05:54:37.620Z,100465.72
2023-06-11T05:57:12.223Z,100458.38
2023-06-11T05:59:42.907Z,100474.75
2023-06-11T06:02:16.371Z,100464.56
2023-06-11T06:04:49.554Z,100466.06
2023-06-11T06:07:21.041Z,100475.66
2023-06-11T06:09:51.768Z,100467.84
2023-06-11T06:12:22.498Z,100468.47
2023-06-11T06:14:53.185Z,100464.47
2023-06-11T06:17:26.553Z,100464.22
2023-06-11T06:19:57.228Z,100467.81
2023-06-11T06:22:27.955Z,100465.72
2023-06-11T06:25:01.629Z,100460.06
2023-06-11T06:27:32.692Z,100464.06
2023-06-11T06:30:03.405Z,100472.69
2023-06-11T06:32:38.489Z,100468.31
2023-06-11T06:35:10.508Z,100465.47
2023-06-11T06:37:42.013Z,100475.28
2023-06-11T06:40:14.648Z,100481.50
2023-06-11T06:42:45.328Z,100481.28
2023-06-11T06:45:16.007Z,100485.72
2023-06-11T06:47:49.468Z,100486.47
2023-06-11T06:50:20.546Z,100478.44
2023-06-11T06:52:51.375Z,100491.44
2023-06-11T06:55:22.044Z,100492.81
2023-06-11T06:57:52.759Z,100480.59
2023-06-11T07:00:24.016Z,100481.75
2023-06-11T07:02:57.428Z,100482.59
2023-06-11T07:05:29.125Z,100484.84
2023-06-11T07:07:59.971Z,100485.34
2023-06-11T07:10:31.613Z,100488.38
2023-06-11T07:13:02.354Z,100481.19
2023-06-11T07:15:33.118Z,100481.78
2023-06-11T07:18:07.001Z,100491.25
2023-06-11T07:20:37.818Z,100486.84
2023-06-11T07:23:08.731Z,100484.06
2023-06-11T07:25:39.413Z,100487.94
2023-06-11T07:28:10.679Z,100491.56
2023-06-11T07:30:41.848Z,100491.56
2023-06-11T07:33:18.513Z,100492.38
2023-06-11T07:35:50.962Z,100495.72
2023-06-11T07:38:21.762Z,100496.28
2023-06-11T07:40:52.469Z,100498.41
2023-06-11T07:43:23.184Z,100505.31
2023-06-11T07:45:53.827Z,100496.97
2023-06-11T07:48:27.131Z,100500.25
2023-06-11T07:50:58.069Z,100504.47
2023-06-11T07:53:28.860Z,100499.81
2023-06-11T07:55:59.935Z,100497.63
2023-06-11T07:58:30.779Z,100497.66
2023-06-11T08:01:01.580Z,100492.38
2023-06-11T08:03:37.408Z,100499.28
2023-06-11T08:06:08.625Z,100496.53
2023-06-11T08:08:39.559Z,100498.75
2023-06-11T08:11:10.259Z,100492.09
2023-06-11T08:13:42.026Z,100506.78
2023-06-11T08:16:12.741Z,100504.56
2023-06-11T08:18:46.506Z,100515.59
2023-06-11T08:21:17.883Z,100511.09
2023-06-11T08:23:49.864Z,100516.34
2023-06-11T08:26:21.269Z,100516.06
2023-06-11T08:28:52.185Z,100508.56
2023-06-11T08:31:23.321Z,100515.53
2023-06-11T08:33:56.651Z,100510.47
2023-06-11T08:36:27.699Z,100522.06
2023-06-11T08:38:58.605Z,100514.31
2023-06-11T08:41:30.537Z,100511.53
2023-06-11T08:44:01.400Z,100514.88
2023-06-11T08:46:38.385Z,100519.00
2023-06-11T08:49:18.486Z,100511.53
2023-06-11T08:51:49.447Z,100505.41
2023-06-11T08:54:21.603Z,100507.13
2023-06-11T08:56:52.803Z,100498.31
2023-06-11T08:59:23.519Z,100501.06
2023-06-11T09:01:54.911Z,100497.53
2023-06-11T09:04:28.340Z,100497.22
2023-06-11T09:07:04.199Z,100499.44
2023-06-11T09:09:35.061Z,100493.63
2023-06-11T09:12:12.213Z,100500.56
2023-06-11T09:14:43.096Z,100502.53
2023-06-11T09:17:20.634Z,100505.63
2023-06-11T09:19:59.049Z,100500.72
2023-06-11T09:22:30.643Z,100504.59
2023-06-11T09:25:01.445Z,100498.78
2023-06-11T09:27:33.064Z,100503.47
2023-06-11T09:30:17.370Z,100504.63
2023-06-11T09:32:50.624Z,100506.00
2023-06-11T09:35:25.763Z,100510.16
2023-06-11T09:37:57.313Z,100500.44
2023-06-11T09:40:28.482Z,100494.59
2023-06-11T09:43:00.511Z,100506.84
2023-06-11T09:45:33.092Z,100502.94
2023-06-11T09:48:04.230Z,100503.47
2023-06-11T09:50:38.049Z,100503.25
2023-06-11T09:53:09.061Z,100500.16
2023-06-11T09:55:40.185Z,100492.38
2023-06-11T09:58:11.788Z,100488.47
2023-06-11T10:00:42.561Z,100483.41
2023-06-11T10:03:13.341Z,100493.38
2023-06-11T10:05:47.116Z,100490.28
2023-06-11T10:08:22.634Z,100488.84
2023-06-11T10:11:01.873Z,100489.66
2023-06-11T10:13:32.819Z,100484.81
2023-06-11T10:16:04.606Z,100492.63
2023-06-11T10:18:36.185Z,100496.81
2023-06-11T10:21:09.656Z,100486.75
2023-06-11T10:23:41.415Z,100486.16
2023-06-11T10:26:14.104Z,100489.19
2023-06-11T10:28:50.237Z,100487.44
2023-06-11T10:31:29.599Z,100492.94
2023-06-11T10:34:06.137Z,100490.41
2023-06-11T10:36:42.700Z,100478.97
2023-06-11T10:39:17.783Z,100489.78
2023-06-11T10:41:48.107Z,100486.94
2023-06-11T10:44:19.491Z,100488.94
2023-06-11T10:46:53.144Z,100486.84
2023-06-11T10:49:27.281Z,100492.75
2023-06-11T10:52:00.734Z,100484.91
2023-06-11T10:54:36.361Z,100484.13
2023-06-11T10:57:08.848Z,100483.28
2023-06-11T10:59:41.846Z,100479.06
2023-06-11T11:02:17.515Z,100487.06
2023-06-11T11:04:57.330Z,100488.09
2023-06-11T11:07:35.847Z,100486.63
2023-06-11T11:10:07.448Z,100493.44
2023-06-11T11:12:44.627Z,100490.06
2023-06-11T11:15:16.158Z,100488.28
2023-06-11T11:17:48.548Z,100482.91
2023-06-11T11:20:21.865Z,100492.88
2023-06-11T11:22:58.186Z,100478.00
2023-06-11T11:25:33.319Z,100476.16
2023-06-11T11:28:04.058Z,100485.97
2023-06-11T11:30:34.813Z,100481.09
2023-06-11T11:33:05.683Z,100479.56
2023-06-11T11:35:36.554Z,100474.75
2023-06-11T11:38:10.405Z,100480.56
2023-06-11T11:40:41.743Z,100472.41
2023-06-11T11:43:16.927Z,100485.69
2023-06-11T11:45:51.271Z,100476.13
2023-06-11T11:48:22.421Z,100479.47
2023-06-11T11:51:09.260Z,100474.94
2023-06-11T11:53:45.257Z,100469.25
2023-06-11T11:56:16.827Z,100468.66
2023-06-11T11:58:47.761Z,100469.81
2023-06-11T12:01:28.606Z,100465.88
2023-06-11T12:04:04.289Z,100460.28
2023-06-11T12:06:35.406Z,100461.78
2023-06-11T12:09:08.713Z,100454.88
2023-06-11T12:11:45.747Z,100464.28
2023-06-11T12:14:27.274Z,100470.91
2023-06-11T12:16:58.089Z,100486.22
2023-06-11T12:19:30.546Z,100484.06
2023-06-11T12:22:01.203Z,100486.16
2023-06-11T12:24:34.666Z,100485.66
2023-06-11T12:27:09.478Z,100478.88
2023-06-11T12:29:43.066Z,100482.63
2023-06-11T12:32:17.611Z,100489.53
2023-06-11T12:34:51.385Z,100487.75
2023-06-11T12:37:22.570Z,100482.63
2023-06-11T12:39:55.974Z,100484.09
2023-06-11T12:42:28.978Z,100483.03
2023-06-11T12:45:00.285Z,100487.56
2023-06-11T12:47:31.408Z,100476.38
2023-06-11T12:50:02.713Z,100480.31
2023-06-11T12:52:33.405Z,100484.84
2023-06-11T12:55:07.105Z,100481.53
2023-06-11T12:57:38.361Z,100473.69
2023-06-11T13:00:13.328Z,100481.97
2023-06-11T13:02:45.471Z,100470.28
2023-06-11T13:05:16.344Z,100477.44
2023-06-11T13:07:47.735Z,100479.94
2023-06-11T13:10:23.676Z,100482.19
2023-06-11T13:12:56.506Z,100481.34
2023-06-11T13:15:27.313Z,100478.75
2023-06-11T13:17:58.564Z,100479.84
2023-06-11T13:20:30.276Z,100481.97
2023-06-11T13:23:01.086Z,100477.72
2023-06-11T13:25:34.992Z,100478.66
2023-06-11T13:28:06.079Z,100483.88
2023-06-11T13:30:36.797Z,100483.63
2023-06-11T13:33:07.754Z,100482.56
2023-06-11T13:35:38.824Z,100482.84
2023-06-11T13:38:09.574Z,100478.94
2023-06-11T13:40:42.964Z,100478.34
2023-06-11T13:43:13.634Z,100479.81
2023-06-11T13:45:47.997Z,100472.47
2023-06-11T13:48:20.798Z,100480.34
2023-06-11T13:50:52.658Z,100478.78
2023-06-11T13:53:23.637Z,100473.69
2023-06-11T13:55:57.003Z,100477.31
2023-06-11T13:58:27.749Z,100472.47
2023-06-11T14:00:58.744Z,100461.16
2023-06-11T14:03:29.830Z,100466.75
2023-06-11T14:06:00.616Z,100469.88
2023-06-11T14:08:31.440Z,100462.63
2023-06-11T14:11:06.127Z,100464.97
2023-06-11T14:13:36.819Z,100461.13
2023-06-11T14:16:07.981Z,100455.44
2023-06-11T14:18:38.778Z,100470.88
2023-06-11T14:21:09.504Z,100467.63
2023-06-11T14:23:40.203Z,100457.03
2023-06-11T14:26:13.535Z,100471.97
2023-06-11T14:28:44.214Z,100455.19
2023-06-11T14:31:15.448Z,100452.53
2023-06-11T14:33:46.197Z,100462.59
2023-06-11T14:36:16.949Z,100454.28
2023-06-11T14:38:47.734Z,100450.25
2023-06-11T14:41:21.439Z,100449.75
2023-06-11T14:43:52.121Z,100453.50
2023-06-11T14:46:23.207Z,100435.78
2023-06-11T14:48:54.000Z,100432.75
2023-06-11T14:51:24.780Z,100434.00
2023-06-11T14:53:55.490Z,100430.44
2023-06-11T14:56:28.962Z,100430.31
2023-06-11T14:58:59.699Z,100433.50
2023-06-11T15:01:30.441Z,100429.22
2023-06-11T15:04:01.196Z,100419.09
2023-06-11T15:06:31.982Z,100420.63
2023-06-11T15:09:02.663Z,100417.28
2023-06-11T15:11:36.416Z,100414.66
2023-06-11T15:14:07.579Z,100420.66
2023-06-11T15:16:38.621Z,100410.81
2023-06-11T15:19:09.367Z,100403.47
2023-06-11T15:21:40.181Z,100410.41
2023-06-11T15:24:11.586Z,100414.13
2023-06-11T15:26:45.109Z,100399.34
2023-06-11T15:29:16.246Z,100402.75
2023-06-11T15:31:47.140Z,100408.59
2023-06-11T15:34:17.953Z,100407.56
2023-06-11T15:36:48.694Z,100410.38
2023-06-11T15:39:19.389Z,100410.66
2023-06-11T15:41:52.782Z,100407.47
2023-06-11T15:44:23.561Z,100410.47
2023-06-11T15:46:54.361Z,100414.38
2023-06-11T15:49:25.129Z,100413.34
2023-06-11T15:51:55.934Z,100419.44
2023-06-11T15:54:26.686Z,100408.88
2023-06-11T15:57:00.283Z,100412.97
2023-06-11T15:59:31.148Z,100407.91
2023-06-11T16:02:02.053Z,100407.06
2023-06-11T16:04:35.454Z,100403.13
2023-06-11T16:07:08.284Z,100403.38
2023-06-11T16:09:39.719Z,100404.09
2023-06-11T16:12:14.000Z,100403.00
2023-06-11T16:14:46.371Z,100392.19
2023-06-11T16:17:17.203Z,100399.97
2023-06-11T16:19:47.986Z,100381.06
2023-06-11T16:22:18.776Z,100384.25
2023-06-11T16:24:49.492Z,100385.19
2023-06-11T16:27:23.053Z,100388.50
2023-06-11T16:29:53.725Z,100389.66
2023-06-11T16:32:24.487Z,100389.13
2023-06-11T16:34:55.156Z,100389.75
2023-06-11T16:37:26.076Z,100382.69
2023-06-11T16:39:56.771Z,100393.69
2023-06-11T16:42:31.108Z,100383.22
2023-06-11T16:45:01.816Z,100381.22
2023-06-11T16:47:32.547Z,100386.56
2023-06-11T16:50:03.222Z,100383.25
2023-06-11T16:52:34.882Z,100384.06
2023-06-11T16:55:05.981Z,100386.28
2023-06-11T16:57:39.277Z,100381.00
2023-06-11T17:00:12.495Z,100376.59
2023-06-11T17:02:43.480Z,100379.28
2023-06-11T17:05:14.449Z,100383.34
2023-06-11T17:07:45.892Z,100376.91
2023-06-11T17:10:16.601Z,100377.03
2023-06-11T17:12:51.359Z,100381.91
2023-06-11T17:15:22.448Z,100373.41
2023-06-11T17:17:53.610Z,100373.41
2023-06-11T17:20:24.696Z,100370.91
2023-06-11T17:22:55.588Z,100363.34
2023-06-11T17:25:26.996Z,100363.81
2023-06-11T17:28:00.397Z,100372.81
2023-06-11T17:30:31.273Z,100370.53
2023-06-11T17:33:02.134Z,100377.44
2023-06-11T17:35:32.968Z,100373.22
2023-06-11T17:38:03.737Z,100379.94
2023-06-11T17:40:35.400Z,100379.19
2023-06-11T17:43:09.837Z,100376.78
2023-06-11T17:45:40.513Z,100373.00
2023-06-11T17:48:11.286Z,100368.03
2023-06-11T17:50:42.598Z,100376.94
2023-06-11T17:53:13.386Z,100379.38
2023-06-11T17:55:44.049Z,100375.78
2023-06-11T17:58:17.395Z,100375.03
2023-06-11T18:00:48.076Z,100386.84
2023-06-11T18:03:18.904Z,100393.34
2023-06-11T18:05:49.699Z,100385.16
2023-06-11T18:08:20.432Z,100395.50
2023-06-11T18:10:51.187Z,100408.19
2023-06-11T18:13:24.529Z,100403.53
2023-06-11T18:15:55.328Z,100399.44
2023-06-11T18:18:26.309Z,100399.22
2023-06-11T18:20:57.125Z,100397.34
2023-06-11T18:23:27.946Z,100398.84
2023-06-11T18:25:58.699Z,100400.25
2023-06-11T18:28:32.137Z,100405.56
2023-06-11T18:31:02.952Z,100397.50
2023-06-11T18:33:33.688Z,100407.25
2023-06-11T18:36:04.394Z,100421.16
2023-06-11T18:38:35.125Z,100440.06
2023-06-11T18:41:05.826Z,100471.47
2023-06-11T18:43:39.726Z,100488.47
2023-06-11T18:46:10.456Z,100501.81
2023-06-11T18:48:41.288Z,100517.38
2023-06-11T18:51:12.016Z,100526.28
2023-06-11T18:53:42.766Z,100568.78
2023-06-11T18:56:13.590Z,100578.19
2023-06-11T18:58:46.946Z,100607.31
2023-06-11T19:01:17.846Z,100624.22
2023-06-11T19:03:48.842Z,100632.19
2023-06-11T19:06:20.911Z,100642.53
2023-06-11T19:08:52.009Z,100637.69
2023-06-11T19:11:22.754Z,100655.72
2023-06-11T19:13:56.122Z,100663.97
2023-06-11T19:16:26.840Z,100677.34
2023-06-11T19:18:57.697Z,100675.25
2023-06-11T19:21:29.577Z,100669.72
2023-06-11T19:24:00.412Z,100659.84
2023-06-11T19:26:31.097Z,100660.19
2023-06-11T19:29:04.418Z,100650.13
2023-06-11T19:31:35.211Z,100652.13
2023-06-11T19:34:06.071Z,100653.63
2023-06-11T19:36:37.920Z,100663.38
2023-06-11T19:39:08.927Z,100678.81
2023-06-11T19:41:39.618Z,100671.91
2023-06-11T19:44:12.978Z,100664.72
2023-06-11T19:46:43.836Z,100653.56
2023-06-11T19:49:15.114Z,100640.28
2023-06-11T19:51:45.998Z,100633.91
2023-06-11T19:54:17.460Z,100633.91
2023-06-11T19:56:48.405Z,100635.34
2023-06-11T19:59:21.799Z,100640.75
2023-06-11T20:01:52.653Z,100643.25
2023-06-11T20:04:23.524Z,100651.63
2023-06-11T20:06:54.229Z,100649.84
2023-06-11T20:09:25.015Z,100645.97
2023-06-11T20:12:04.393Z,100646.81
2023-06-11T20:14:37.941Z,100639.03
2023-06-11T20:17:09.031Z,100638.91
2023-06-11T20:19:40.344Z,100632.81
2023-06-11T20:22:11.356Z,100635.41
2023-06-11T20:24:42.125Z,100644.13
2023-06-11T20:27:12.870Z,100655.75
2023-06-11T20:29:46.213Z,100668.81
2023-06-11T20:32:18.586Z,100658.75
2023-06-11T20:34:49.381Z,100659.78
2023-06-11T20:37:20.124Z,100649.13
2023-06-11T20:39:50.848Z,100656.13
2023-06-11T20:42:21.661Z,100655.16
2023-06-11T20:44:55.143Z,100655.09
2023-06-11T20:47:26.202Z,100659.16
2023-06-11T20:49:57.076Z,100652.19
2023-06-11T20:52:28.182Z,100646.22
2023-06-11T20:54:59.100Z,100641.94
2023-06-11T20:57:29.849Z,100632.03
2023-06-11T21:00:03.272Z,100626.59
2023-06-11T21:02:34.127Z,100634.13
2023-06-11T21:05:05.023Z,100634.13
2023-06-11T21:07:36.403Z,100628.34
2023-06-11T21:10:07.615Z,100625.00
2023-06-11T21:12:46.748Z,100625.44
2023-06-11T21:15:20.404Z,100618.22
2023-06-11T21:17:51.254Z,100626.25
2023-06-11T21:20:22.255Z,100619.06
2023-06-11T21:22:52.969Z,100628.63
2023-06-11T21:25:23.713Z,100624.28
2023-06-11T21:27:54.405Z,100642.31
2023-06-11T21:30:27.957Z,100644.44
2023-06-11T21:32:58.672Z,100650.56
2023-06-11T21:35:29.578Z,100652.25
2023-06-11T21:38:00.304Z,100645.22
2023-06-11T21:40:31.137Z,100636.97
2023-06-11T21:43:02.084Z,100640.31
2023-06-11T21:45:35.846Z,100633.66
2023-06-11T21:48:07.171Z,100629.84
2023-06-11T21:50:38.010Z,100631.84
2023-06-11T21:53:09.176Z,100628.25
2023-06-11T21:55:39.899Z,100638.03
2023-06-11T21:58:10.633Z,100645.22
2023-06-11T22:00:44.188Z,100637.56
2023-06-11T22:03:18.539Z,100628.13
2023-06-11T22:05:53.473Z,100625.38
2023-06-11T22:08:26.800Z,100625.38
2023-06-11T22:10:57.570Z,100628.78
2023-06-11T22:13:28.306Z,100628.56
2023-06-11T22:16:01.655Z,100625.06
2023-06-11T22:18:34.421Z,100626.81
2023-06-11T22:21:05.453Z,100631.03
2023-06-11T22:23:50.329Z,100627.69
2023-06-11T22:26:23.056Z,100637.53
2023-06-11T22:28:54.431Z,100637.81
2023-06-11T22:31:27.918Z,100630.66
2023-06-11T22:33:58.658Z,100628.84
2023-06-11T22:36:29.419Z,100626.22
2023-06-11T22:39:00.095Z,100625.22
2023-06-11T22:41:30.824Z,100620.13
2023-06-11T22:44:01.507Z,100612.69
2023-06-11T22:46:34.926Z,100612.56
2023-06-11T22:49:06.202Z,100626.09
2023-06-11T22:51:37.952Z,100618.06
2023-06-11T22:54:09.750Z,100617.59
2023-06-11T22:56:40.488Z,100615.00
2023-06-11T22:59:11.340Z,100616.31
2023-06-11T23:01:44.837Z,100613.34
2023-06-11T23:04:15.779Z,100600.19
2023-06-11T23:06:50.626Z,100602.78
2023-06-11T23:09:23.805Z,100599.06
2023-06-11T23:11:54.518Z,100603.56
2023-06-11T23:14:25.348Z,100596.16
2023-06-11T23:16:59.743Z,100601.66
2023-06-11T23:19:30.739Z,100605.88
2023-06-11T23:22:03.029Z,100606.94
2023-06-11T23:24:33.836Z,100605.25
2023-06-11T23:27:07.685Z,100611.22
2023-06-11T23:29:38.426Z,100617.31
2023-06-11T23:32:12.727Z,100618.63
2023-06-11T23:34:43.607Z,100625.31
2023-06-11T23:37:15.067Z,100626.00
2023-06-11T23:39:46.012Z,100615.16
2023-06-11T23:42:16.752Z,100616.00
2023-06-11T23:44:47.422Z,100615.16
2023-06-11T23:47:21.048Z,100600.81
2023-06-11T23:49:51.830Z,100614.03
2023-06-11T23:52:22.628Z,100610.22
2023-06-11T23:54:53.331Z,100592.91
2023-06-11T23:57:24.118Z,100594.19
2023-06-11T23:59:55.003Z,100594.72
